Time;durP1;ratioP1;P1;durP2;ratioP2;P2;SDS_P1;SDS_P2;PMS_P1;PMS_P2;Temp;Humidity;BMP_temperature;BMP_pressure;BME280_temperature;BME280_humidity;BME280_pressure;Samples;Min_cycle;Max_cycle;Signal;HPM_P1;HPM_P2
2023/01/09 00:00:20;;;;;;;4.22;1.73;;;;;;;7.27;100.00;98692.84;684746;28;4381;-61
2023/01/09 00:00:41;;;;;;;3.25;1.60;;;;;;;7.31;100.00;98691.88;687304;28;1396;-62
2023/01/09 00:01:11;;;;;;;3.58;1.70;;;;;;;7.25;100.00;98689.44;688060;28;1289;-63
2023/01/09 00:01:36;;;;;;;3.15;1.65;;;;;;;7.25;100.00;98685.09;688156;28;8118;-61
2023/01/09 00:01:57;;;;;;;3.28;1.60;;;;;;;7.26;100.00;98684.19;687542;28;1346;-61
2023/01/09 00:02:17;;;;;;;3.45;1.63;;;;;;;7.24;100.00;98683.41;688688;28;1198;-62
2023/01/09 00:02:39;;;;;;;3.10;1.50;;;;;;;7.26;100.00;98678.16;689111;28;1246;-62
2023/01/09 00:02:59;;;;;;;3.42;1.73;;;;;;;7.21;100.00;98678.25;687672;28;1263;-62
2023/01/09 00:03:20;;;;;;;3.60;1.70;;;;;;;7.20;100.00;98684.34;687522;28;4541;-61
2023/01/09 00:03:40;;;;;;;3.67;1.83;;;;;;;7.21;100.00;98683.44;687714;28;1329;-62
2023/01/09 00:04:01;;;;;;;3.53;1.70;;;;;;;7.21;100.00;98688.63;687375;28;1414;-62
2023/01/09 00:04:22;;;;;;;3.15;1.58;;;;;;;7.14;100.00;98684.47;688297;28;1289;-63
2023/01/09 00:04:42;;;;;;;4.03;1.83;;;;;;;7.11;100.00;98690.59;683505;28;1922;-62
2023/01/09 00:05:03;;;;;;;4.40;1.77;;;;;;;7.11;100.00;98690.59;678963;28;2322;-63
2023/01/09 00:05:23;;;;;;;3.80;1.75;;;;;;;7.10;100.00;98686.31;682402;28;1352;-62
2023/01/09 00:05:44;;;;;;;4.68;1.90;;;;;;;7.07;100.00;98695.91;683539;28;1537;-64
2023/01/09 00:06:04;;;;;;;3.60;1.40;;;;;;;7.07;100.00;98685.50;682113;28;1451;-63
2023/01/09 00:06:25;;;;;;;3.40;1.30;;;;;;;7.12;100.00;98694.91;681815;28;4309;-62
2023/01/09 00:06:52;;;;;;;2.83;1.30;;;;;;;7.18;100.00;98693.06;688952;28;1525;-63
2023/01/09 00:07:12;;;;;;;2.60;1.33;;;;;;;7.18;100.00;98688.72;687368;28;1269;-63
2023/01/09 00:07:33;;;;;;;3.27;1.40;;;;;;;7.20;100.00;98692.16;687885;28;1203;-63
2023/01/09 00:07:56;;;;;;;3.73;1.30;;;;;;;7.18;100.00;98690.47;687744;28;1274;-64
2023/01/09 00:08:18;;;;;;;3.88;1.27;;;;;;;7.15;100.00;98692.25;687209;28;1547;-63
2023/01/09 00:08:38;;;;;;;3.05;1.20;;;;;;;7.20;100.00;98693.88;684658;28;1311;-63
2023/01/09 00:08:58;;;;;;;2.40;1.20;;;;;;;7.24;100.00;98693.78;681866;28;1540;-63
2023/01/09 00:09:23;;;;;;;2.70;1.30;;;;;;;7.18;100.00;98695.66;682605;28;4612;-63
2023/01/09 00:09:43;;;;;;;2.90;1.40;;;;;;;7.14;100.00;98693.16;686545;28;1323;-62
2023/01/09 00:10:05;;;;;;;2.87;1.30;;;;;;;7.15;100.00;98689.63;685630;28;1589;-61
2023/01/09 00:10:26;;;;;;;2.78;1.30;;;;;;;7.13;100.00;98694.03;685930;28;1895;-61
2023/01/09 00:10:48;;;;;;;2.00;1.20;;;;;;;7.18;100.00;98687.88;687486;28;1568;-62
2023/01/09 00:11:09;;;;;;;3.20;1.30;;;;;;;7.17;100.00;98692.19;687130;28;1183;-63
2023/01/09 00:11:29;;;;;;;3.17;1.17;;;;;;;7.18;100.00;98693.06;687352;28;1139;-63
2023/01/09 00:11:51;;;;;;;2.30;1.13;;;;;;;7.14;100.00;98693.16;689191;28;1354;-63
2023/01/09 00:12:11;;;;;;;2.65;1.52;;;;;;;7.14;100.00;98695.75;686996;28;1722;-64
2023/01/09 00:12:32;;;;;;;2.83;1.57;;;;;;;7.16;100.00;98695.72;687910;28;4409;-64
2023/01/09 00:12:53;;;;;;;2.88;1.15;;;;;;;7.09;100.00;98692.38;686638;28;1404;-64
2023/01/09 00:13:13;;;;;;;3.10;1.20;;;;;;;7.05;100.00;98698.53;687024;28;1234;-63
2023/01/09 00:13:34;;;;;;;2.47;1.08;;;;;;;7.01;100.00;98693.47;687788;28;1175;-63
2023/01/09 00:13:54;;;;;;;1.85;0.93;;;;;;;7.03;100.00;98702.06;685076;28;1192;-63
2023/01/09 00:14:16;;;;;;;2.07;1.00;;;;;;;7.03;100.00;98692.50;688047;28;1195;-62
2023/01/09 00:14:36;;;;;;;1.95;1.00;;;;;;;7.01;100.00;98696.06;686706;28;1167;-63
2023/01/09 00:14:57;;;;;;;2.07;1.00;;;;;;;7.07;100.00;98695.91;688067;28;1383;-63
2023/01/09 00:15:17;;;;;;;2.00;0.90;;;;;;;7.09;100.00;98700.19;687812;28;4512;-64
2023/01/09 00:15:39;;;;;;;1.90;1.00;;;;;;;7.02;100.00;98693.41;688885;28;1427;-63
2023/01/09 00:15:59;;;;;;;2.67;1.17;;;;;;;7.04;100.00;98693.38;687375;28;1131;-63
2023/01/09 00:16:20;;;;;;;2.30;1.00;;;;;;;7.05;100.00;98693.34;689486;28;1294;-63
2023/01/09 00:16:40;;;;;;;2.83;1.30;;;;;;;7.07;100.00;98691.56;688261;28;1333;-63
2023/01/09 00:17:01;;;;;;;3.10;1.30;;;;;;;7.09;100.00;98688.91;688053;28;1417;-63
2023/01/09 00:17:21;;;;;;;3.20;1.20;;;;;;;7.08;100.00;98697.63;687581;28;1270;-62
2023/01/09 00:17:42;;;;;;;2.53;1.10;;;;;;;6.99;100.00;98691.75;685396;28;1547;-63
2023/01/09 00:18:02;;;;;;;2.70;1.13;;;;;;;7.02;100.00;98688.22;684911;28;1631;-63
2023/01/09 00:18:22;;;;;;;2.20;1.07;;;;;;;7.01;100.00;98689.09;681886;28;4401;-63
2023/01/09 00:18:43;;;;;;;2.00;1.10;;;;;;;7.01;100.00;98691.69;683206;28;1493;-63
2023/01/09 00:19:03;;;;;;;2.90;1.20;;;;;;;6.98;100.00;98686.56;682580;28;1471;-63
2023/01/09 00:19:24;;;;;;;2.92;1.15;;;;;;;6.99;100.00;98690.88;685656;28;1419;-63
2023/01/09 00:19:44;;;;;;;2.80;1.30;;;;;;;6.96;100.00;98697.00;686102;28;1441;-63
2023/01/09 00:20:06;;;;;;;2.55;1.20;;;;;;;6.92;100.00;98697.97;685419;28;1366;-63
2023/01/09 00:20:27;;;;;;;2.45;1.20;;;;;;;6.90;100.00;98698.88;688402;28;1430;-64
2023/01/09 00:20:47;;;;;;;2.30;1.23;;;;;;;6.85;100.00;98700.72;689630;28;1470;-64
2023/01/09 00:21:09;;;;;;;2.38;1.20;;;;;;;6.86;100.00;98692.03;687635;28;1319;-63
2023/01/09 00:21:30;;;;;;;2.90;1.20;;;;;;;6.85;100.00;98695.50;686267;28;4299;-64
2023/01/09 00:21:50;;;;;;;2.40;1.17;;;;;;;6.85;100.00;98695.50;688309;28;1175;-64
2023/01/09 00:22:11;;;;;;;2.30;1.10;;;;;;;6.85;100.00;98692.91;687410;28;1210;-64
2023/01/09 00:22:31;;;;;;;2.63;1.10;;;;;;;6.85;100.00;98698.94;689598;28;1163;-64
2023/01/09 00:22:51;;;;;;;2.60;1.17;;;;;;;6.84;100.00;98699.00;688934;28;1251;-64
2023/01/09 00:23:12;;;;;;;3.43;1.10;;;;;;;6.84;100.00;98699.00;687853;28;1162;-64
2023/01/09 00:23:32;;;;;;;3.63;1.23;;;;;;;6.93;100.00;98698.81;687913;28;1585;-63
2023/01/09 00:23:56;;;;;;;2.45;1.20;;;;;;;7.01;100.00;98698.66;688086;28;1326;-63
2023/01/09 00:24:17;;;;;;;2.40;1.10;;;;;;;6.99;100.00;98698.66;687408;28;4451;-63
2023/01/09 00:24:37;;;;;;;2.80;1.10;;;;;;;6.98;100.00;98696.97;687440;28;1378;-63
2023/01/09 00:24:57;;;;;;;2.97;1.10;;;;;;;7.01;100.00;98699.50;687673;28;1910;-63
2023/01/09 00:25:18;;;;;;;2.37;1.20;;;;;;;6.95;100.00;98691.81;688612;28;1216;-64
2023/01/09 00:25:39;;;;;;;3.15;1.30;;;;;;;6.99;100.00;98698.66;688976;28;1440;-63
2023/01/09 00:26:10;;;;;;;2.83;1.20;;;;;;;6.92;100.00;98697.09;687591;28;1788;-63
2023/01/09 00:26:31;;;;;;;2.50;0.98;;;;;;;6.96;100.00;98693.53;686872;28;1427;-63
2023/01/09 00:26:52;;;;;;;2.45;1.00;;;;;;;6.97;100.00;98692.66;688239;28;1493;-63
2023/01/09 00:27:13;;;;;;;2.40;1.08;;;;;;;6.93;100.00;98693.59;688305;28;1174;-63
2023/01/09 00:27:34;;;;;;;2.17;1.00;;;;;;;6.91;100.00;98692.78;688075;28;4395;-64
2023/01/09 00:27:54;;;;;;;2.28;1.00;;;;;;;6.88;100.00;98698.91;684042;28;1669;-64
2023/01/09 00:28:15;;;;;;;2.50;1.00;;;;;;;6.91;100.00;98695.38;685957;28;1168;-63
2023/01/09 00:28:35;;;;;;;2.43;1.00;;;;;;;6.93;100.00;98694.44;684040;28;1354;-63
2023/01/09 00:28:56;;;;;;;2.15;1.00;;;;;;;6.94;100.00;98705.72;686737;28;1196;-64
2023/01/09 00:29:16;;;;;;;1.97;1.00;;;;;;;6.95;100.00;98697.00;685716;28;1322;-63
2023/01/09 00:29:37;;;;;;;2.30;1.00;;;;;;;6.96;100.00;98698.72;684361;28;1279;-64
2023/01/09 00:29:57;;;;;;;2.03;0.90;;;;;;;6.91;100.00;98696.25;684748;28;1080;-64
2023/01/09 00:30:17;;;;;;;1.90;0.90;;;;;;;6.80;100.00;98698.22;686018;28;4422;-64
2023/01/09 00:30:38;;;;;;;2.27;0.90;;;;;;;6.78;100.00;98703.44;686820;28;1385;-63
2023/01/09 00:31:00;;;;;;;2.00;0.90;;;;;;;6.80;100.00;98701.66;685224;28;1081;-62
2023/01/09 00:31:21;;;;;;;1.77;0.82;;;;;;;6.90;100.00;98698.88;686508;28;1358;-62
2023/01/09 00:31:41;;;;;;;1.60;0.80;;;;;;;6.89;100.00;98702.34;687016;28;1446;-64
2023/01/09 00:32:01;;;;;;;1.13;0.70;;;;;;;6.89;100.00;98699.75;688577;28;1333;-61
2023/01/09 00:32:22;;;;;;;0.93;0.70;;;;;;;6.85;100.00;98704.16;688540;28;1505;-64
2023/01/09 00:32:42;;;;;;;1.43;0.70;;;;;;;6.84;100.00;98693.78;688640;28;1436;-63
2023/01/09 00:33:02;;;;;;;1.57;0.67;;;;;;;6.83;100.00;98692.94;687290;28;1237;-63
2023/01/09 00:33:27;;;;;;;1.60;0.60;;;;;;;6.79;100.00;98696.50;687463;28;4450;-62
2023/01/09 00:33:59;;;;;;;1.98;0.68;;;;;;;6.78;100.00;98703.44;691019;28;1530;-63
2023/01/09 00:34:19;;;;;;;1.88;0.60;;;;;;;6.71;100.00;98703.59;691906;28;1302;-62
2023/01/09 00:34:41;;;;;;;1.83;0.70;;;;;;;6.76;100.00;98704.34;691555;28;1574;-63
2023/01/09 00:35:02;;;;;;;0.93;0.60;;;;;;;6.75;100.00;98700.03;689490;28;1527;-63
2023/01/09 00:35:26;;;;;;;0.70;0.50;;;;;;;6.75;100.00;98695.69;689635;28;8785;-63
2023/01/09 00:35:46;;;;;;;1.90;0.45;;;;;;;6.76;100.00;98696.56;689713;28;1822;-61
2023/01/09 00:36:07;;;;;;;0.83;0.43;;;;;;;6.72;100.00;98694.91;687570;28;1671;-63
2023/01/09 00:36:28;;;;;;;0.70;0.50;;;;;;;6.68;100.00;98694.13;687117;28;4421;-62
2023/01/09 00:36:53;;;;;;;0.90;0.50;;;;;;;6.65;100.00;98697.63;686554;28;1129;-61
2023/01/09 00:37:14;;;;;;;0.73;0.40;;;;;;;6.66;100.00;98701.09;684595;28;1203;-62
2023/01/09 00:37:34;;;;;;;0.67;0.40;;;;;;;6.64;100.00;98703.69;686003;28;1339;-61
2023/01/09 00:37:54;;;;;;;1.50;0.50;;;;;;;6.57;100.00;98702.13;686807;28;1487;-62
2023/01/09 00:38:15;;;;;;;0.90;0.50;;;;;;;6.55;100.00;98697.84;684971;28;1446;-63
2023/01/09 00:38:36;;;;;;;1.15;0.52;;;;;;;6.56;100.00;98705.63;686438;28;1498;-62
2023/01/09 00:38:57;;;;;;;1.10;0.50;;;;;;;6.53;100.00;98700.47;688703;28;1175;-63
2023/01/09 00:39:17;;;;;;;1.25;0.50;;;;;;;6.59;100.00;98696.88;684663;28;4382;-63
2023/01/09 00:39:38;;;;;;;1.30;0.40;;;;;;;6.61;100.00;98702.94;686027;28;1389;-62
2023/01/09 00:39:58;;;;;;;1.02;0.40;;;;;;;6.65;100.00;98696.78;685189;28;1220;-61
2023/01/09 00:40:20;;;;;;;0.90;0.50;;;;;;;6.69;100.00;98701.03;685233;28;1338;-63
2023/01/09 00:40:40;;;;;;;0.57;0.40;;;;;;;6.65;100.00;98702.81;685146;28;1469;-62
2023/01/09 00:41:02;;;;;;;0.40;0.40;;;;;;;6.63;100.00;98695.94;686741;28;1335;-62
2023/01/09 00:41:29;;;;;;;0.63;0.40;;;;;;;6.69;100.00;98695.84;688685;28;1488;-63
2023/01/09 00:41:53;;;;;;;1.27;0.50;;;;;;;6.71;100.00;98694.03;686965;28;1176;-62
2023/01/09 00:42:21;;;;;;;1.02;0.40;;;;;;;6.66;100.00;98693.31;686861;28;1072;-62
2023/01/09 00:42:44;;;;;;;1.10;0.50;;;;;;;6.63;100.00;98701.13;688455;28;4967;-63
2023/01/09 00:43:04;;;;;;;1.33;0.40;;;;;;;6.60;100.00;98706.41;688323;28;1341;-62
2023/01/09 00:43:31;;;;;;;0.83;0.40;;;;;;;6.54;100.00;98706.53;688724;28;1499;-62
2023/01/09 00:43:55;;;;;;;0.90;0.60;;;;;;;6.58;100.00;98705.59;688979;28;1134;-62
2023/01/09 00:44:26;;;;;;;0.45;0.40;;;;;;;6.55;100.00;98708.22;689190;28;1123;-63
2023/01/09 00:44:52;;;;;;;1.27;0.60;;;;;;;6.42;100.00;98702.41;688187;28;1971;-62
2023/01/09 00:45:17;;;;;;;0.93;0.40;;;;;;;6.39;100.00;98708.53;688053;28;1143;-61
2023/01/09 00:45:37;;;;;;;0.52;0.40;;;;;;;6.42;100.00;98713.66;687565;28;5097;-63
2023/01/09 00:46:02;;;;;;;0.57;0.52;;;;;;;6.45;100.00;98707.53;688179;28;1194;-63
2023/01/09 00:46:29;;;;;;;1.13;0.50;;;;;;;6.38;100.00;98709.41;688549;28;1321;-63
2023/01/09 00:46:54;;;;;;;1.20;0.60;;;;;;;6.34;100.00;98705.19;687779;28;1091;-63
2023/01/09 00:47:24;;;;;;;1.05;0.50;;;;;;;6.37;100.00;98706.84;688730;28;1138;-62
2023/01/09 00:47:49;;;;;;;0.93;0.43;;;;;;;6.37;100.00;98699.94;687759;28;1684;-63
2023/01/09 00:48:14;;;;;;;1.10;0.50;;;;;;;6.37;100.00;98704.25;687222;28;1339;-62
2023/01/09 00:48:37;;;;;;;1.85;0.60;;;;;;;6.39;100.00;98712.88;687266;28;4310;-63
2023/01/09 00:49:03;;;;;;;1.15;0.50;;;;;;;6.49;100.00;98706.59;688496;28;1235;-62
2023/01/09 00:49:28;;;;;;;1.85;0.60;;;;;;;6.48;100.00;98708.34;689293;28;1414;-63
2023/01/09 00:49:50;;;;;;;0.82;0.60;;;;;;;6.53;100.00;98707.41;683818;28;1172;-63
2023/01/09 00:50:15;;;;;;;0.98;0.60;;;;;;;6.51;100.00;98714.34;687344;28;1180;-62
2023/01/09 00:50:36;;;;;;;1.40;0.50;;;;;;;6.46;100.00;98712.72;687378;28;1391;-63
2023/01/09 00:50:58;;;;;;;2.10;0.60;;;;;;;6.46;100.00;98710.09;687683;28;1255;-62
2023/01/09 00:51:19;;;;;;;1.32;0.56;;;;;;;6.43;100.00;98710.19;687387;28;4636;-63
2023/01/09 00:51:40;;;;;;;0.90;0.50;;;;;;;6.43;100.00;98711.94;685299;28;1161;-63
2023/01/09 00:52:03;;;;;;;1.33;0.60;;;;;;;6.42;100.00;98705.84;685776;28;1319;-63
2023/01/09 00:52:25;;;;;;;1.63;0.70;;;;;;;6.41;100.00;98703.31;685233;28;1694;-63
2023/01/09 00:52:47;;;;;;;2.13;0.70;;;;;;;6.39;100.00;98711.13;684858;28;1303;-63
2023/01/09 00:53:12;;;;;;;1.48;0.60;;;;;;;6.35;100.00;98701.69;685711;28;1258;-63
2023/01/09 00:53:36;;;;;;;0.68;0.50;;;;;;;6.35;100.00;98699.09;687792;28;1398;-63
2023/01/09 00:53:57;;;;;;;1.23;0.68;;;;;;;6.36;100.00;98708.59;688117;28;1178;-63
2023/01/09 00:54:18;;;;;;;1.70;0.70;;;;;;;6.40;100.00;98701.63;685921;28;4534;-63
2023/01/09 00:54:40;;;;;;;1.17;0.60;;;;;;;6.43;100.00;98697.19;685464;28;1350;-61
2023/01/09 00:55:01;;;;;;;0.73;0.50;;;;;;;6.46;100.00;98699.72;681730;28;1723;-63
2023/01/09 00:55:22;;;;;;;1.00;0.52;;;;;;;6.46;100.00;98707.50;681748;28;1487;-63
2023/01/09 00:55:43;;;;;;;1.40;0.80;;;;;;;6.52;100.00;98698.78;683112;28;1299;-63
2023/01/09 00:56:07;;;;;;;1.10;0.70;;;;;;;6.56;100.00;98694.38;685963;28;1540;-63
2023/01/09 00:56:27;;;;;;;1.50;0.65;;;;;;;6.56;100.00;98699.56;684927;28;1196;-63
2023/01/09 00:56:48;;;;;;;1.88;0.70;;;;;;;6.58;100.00;98710.78;686649;28;1230;-63
2023/01/09 00:57:12;;;;;;;2.25;0.60;;;;;;;6.53;100.00;98697.03;687334;28;1329;-63
2023/01/09 00:57:33;;;;;;;1.92;0.70;;;;;;;6.52;100.00;98705.69;686274;28;4624;-63
2023/01/09 00:57:54;;;;;;;1.87;0.70;;;;;;;6.55;100.00;98703.91;687738;28;1283;-63
2023/01/09 00:58:15;;;;;;;1.13;0.60;;;;;;;6.53;100.00;98705.66;689016;28;1293;-62
2023/01/09 00:58:36;;;;;;;1.30;0.60;;;;;;;6.53;100.00;98703.06;688955;28;1263;-62
2023/01/09 00:58:56;;;;;;;1.50;0.60;;;;;;;6.57;100.00;98707.31;686839;28;1243;-62
2023/01/09 00:59:17;;;;;;;1.77;0.70;;;;;;;6.61;100.00;98702.94;688520;28;1241;-62
2023/01/09 00:59:39;;;;;;;2.15;0.80;;;;;;;6.65;100.00;98710.59;688424;28;1371;-63
2023/01/09 01:00:00;;;;;;;1.30;0.68;;;;;;;6.63;100.00;98712.41;687746;28;1441;-63
2023/01/09 01:00:20;;;;;;;1.35;0.80;;;;;;;6.65;100.00;98708.00;688103;28;4354;-61
2023/01/09 01:00:40;;;;;;;1.77;0.70;;;;;;;6.69;100.00;98708.81;687012;28;1310;-62
2023/01/09 01:01:01;;;;;;;1.67;0.60;;;;;;;6.67;100.00;98707.97;687547;28;1362;-63
2023/01/09 01:01:21;;;;;;;2.10;0.70;;;;;;;6.61;100.00;98714.16;687699;28;1488;-62
2023/01/09 01:01:45;;;;;;;1.50;0.60;;;;;;;6.57;100.00;98716.84;687205;28;1598;-63
2023/01/09 01:02:05;;;;;;;1.05;0.68;;;;;;;6.55;100.00;98713.41;688065;28;1299;-63
2023/01/09 01:02:26;;;;;;;1.67;0.70;;;;;;;6.53;100.00;98712.59;689565;28;1426;-63
2023/01/09 01:02:46;;;;;;;1.95;0.70;;;;;;;6.44;100.00;98722.28;688450;28;1671;-63
2023/01/09 01:03:06;;;;;;;1.27;0.70;;;;;;;6.40;100.00;98722.38;684915;28;1343;-62
2023/01/09 01:03:27;;;;;;;1.40;0.70;;;;;;;6.30;100.00;98719.94;685966;28;4398;-62
2023/01/09 01:03:47;;;;;;;2.00;0.70;;;;;;;6.27;100.00;98716.53;689360;28;1280;-62
2023/01/09 01:07:38;;;;;;;2.40;0.65;;;;;;;6.38;100.00;98722.38;687609;28;1517;-63
2023/01/09 01:07:58;;;;;;;1.67;0.80;;;;;;;6.43;100.00;98720.56;687381;28;1374;-63
2023/01/09 01:08:22;;;;;;;1.52;0.70;;;;;;;6.43;100.00;98717.13;687780;28;1344;-62
2023/01/09 01:08:44;;;;;;;1.30;0.60;;;;;;;6.52;100.00;98718.66;686731;28;1315;-63
2023/01/09 01:09:05;;;;;;;1.30;0.70;;;;;;;6.49;100.00;98727.38;685958;28;1533;-63
2023/01/09 01:09:25;;;;;;;1.60;0.80;;;;;;;6.46;100.00;98727.44;688009;28;4525;-63
2023/01/09 01:09:45;;;;;;;1.52;0.80;;;;;;;6.49;100.00;98722.19;689154;28;1544;-63
2023/01/09 01:10:09;;;;;;;1.30;0.70;;;;;;;6.57;100.00;98724.63;686397;28;1502;-62
2023/01/09 01:10:29;;;;;;;1.85;0.82;;;;;;;6.57;100.00;98719.44;686754;28;1274;-63
2023/01/09 01:10:50;;;;;;;1.90;0.80;;;;;;;6.53;100.00;98729.03;687009;28;1272;-62
2023/01/09 01:11:11;;;;;;;1.35;0.60;;;;;;;6.50;100.00;98725.66;687716;28;1206;-63
2023/01/09 01:11:33;;;;;;;1.40;0.70;;;;;;;6.50;100.00;98729.09;685342;28;1268;-62
2023/01/09 01:11:53;;;;;;;1.98;1.00;;;;;;;6.48;100.00;98728.28;687288;28;1297;-63
2023/01/09 01:12:14;;;;;;;2.27;0.87;;;;;;;6.51;100.00;98724.75;688519;28;1124;-62
2023/01/09 01:12:34;;;;;;;2.65;0.70;;;;;;;6.47;100.00;98724.81;687769;28;4435;-63
2023/01/09 01:12:54;;;;;;;1.90;0.70;;;;;;;6.60;100.00;98724.56;688253;28;1214;-63
2023/01/09 01:13:15;;;;;;;1.45;0.60;;;;;;;6.59;100.00;98723.72;687852;28;1228;-63
2023/01/09 01:13:37;;;;;;;2.63;0.60;;;;;;;6.56;100.00;98726.41;687250;28;1246;-62
2023/01/09 01:13:58;;;;;;;1.35;0.70;;;;;;;6.64;100.00;98728.81;686903;28;1315;-62
2023/01/09 01:14:18;;;;;;;1.63;0.80;;;;;;;6.68;100.00;98727.88;688051;28;1337;-62
2023/01/09 01:14:39;;;;;;;2.20;1.00;;;;;;;6.60;100.00;98734.97;687880;28;1345;-63
2023/01/09 01:14:59;;;;;;;1.77;1.00;;;;;;;6.52;100.00;98729.06;687568;28;1365;-63
2023/01/09 01:15:20;;;;;;;2.13;0.85;;;;;;;6.47;100.00;98732.59;687204;28;4391;-62
2023/01/09 01:15:42;;;;;;;1.67;0.80;;;;;;;6.45;100.00;98734.38;688862;28;1521;-63
2023/01/09 01:16:08;;;;;;;1.98;0.77;;;;;;;6.41;100.00;98731.84;689719;28;1326;-63
2023/01/09 01:16:28;;;;;;;1.00;0.60;;;;;;;6.36;100.00;98726.75;685078;28;1241;-62
2023/01/09 01:16:49;;;;;;;1.07;0.70;;;;;;;6.34;100.00;98740.63;685943;28;1294;-62
2023/01/09 01:17:09;;;;;;;1.23;0.70;;;;;;;6.41;100.00;98731.84;686212;28;1255;-62
2023/01/09 01:17:32;;;;;;;2.03;0.80;;;;;;;6.41;100.00;98732.72;686396;28;1248;-63
2023/01/09 01:17:52;;;;;;;2.60;0.70;;;;;;;6.47;100.00;98737.78;687540;28;1282;-62
2023/01/09 01:18:13;;;;;;;2.10;0.60;;;;;;;6.56;100.00;98738.50;686493;28;1184;-62
2023/01/09 01:18:34;;;;;;;1.65;0.70;;;;;;;6.56;100.00;98741.09;689505;28;4573;-62
2023/01/09 01:18:54;;;;;;;1.15;0.70;;;;;;;6.54;100.00;98738.53;688528;28;1127;-63
2023/01/09 01:19:14;;;;;;;1.60;0.70;;;;;;;6.55;100.00;98740.25;688355;28;1191;-62
2023/01/09 01:19:35;;;;;;;1.77;0.70;;;;;;;6.62;100.00;98738.41;688393;28;1275;-62
2023/01/09 01:19:55;;;;;;;1.37;0.70;;;;;;;6.57;100.00;98737.63;687370;28;1246;-63
2023/01/09 01:20:17;;;;;;;1.00;0.70;;;;;;;6.44;100.00;98740.44;688885;28;1286;-63
2023/01/09 01:20:43;;;;;;;1.45;0.70;;;;;;;6.35;100.00;98738.00;688188;28;1322;-62
2023/01/09 01:21:07;;;;;;;1.60;0.65;;;;;;;6.32;100.00;98740.66;686848;28;1394;-62
2023/01/09 01:21:28;;;;;;;1.98;0.73;;;;;;;6.30;100.00;98738.09;686476;28;4586;-62
2023/01/09 01:21:48;;;;;;;1.27;0.70;;;;;;;6.34;100.00;98741.50;687273;28;1287;-62
2023/01/09 01:22:09;;;;;;;1.30;0.70;;;;;;;6.37;100.00;98741.44;687941;28;1167;-63
2023/01/09 01:22:29;;;;;;;1.38;0.70;;;;;;;6.35;100.00;98737.16;687802;28;1335;-63
2023/01/09 01:22:49;;;;;;;1.77;0.70;;;;;;;6.33;100.00;98734.59;687947;28;1187;-62
2023/01/09 01:23:10;;;;;;;1.60;0.70;;;;;;;6.32;100.00;98740.66;688116;28;1345;-63
2023/01/09 01:23:30;;;;;;;2.17;0.80;;;;;;;6.33;100.00;98736.31;688180;28;1780;-62
2023/01/09 01:23:51;;;;;;;1.37;0.70;;;;;;;6.33;100.00;98737.19;687933;28;1179;-63
2023/01/09 01:24:11;;;;;;;1.60;0.70;;;;;;;6.27;100.00;98730.38;687700;28;1391;-63
2023/01/09 01:24:32;;;;;;;1.43;0.60;;;;;;;6.30;100.00;98738.09;688146;28;4300;-62
2023/01/09 01:24:52;;;;;;;1.05;0.70;;;;;;;6.31;100.00;98741.53;684820;28;1914;-62
2023/01/09 01:25:16;;;;;;;1.20;0.60;;;;;;;6.44;100.00;98737.84;684752;28;1205;-63
2023/01/09 01:25:38;;;;;;;1.45;0.70;;;;;;;6.44;100.00;98735.25;685774;28;1295;-62
2023/01/09 01:26:04;;;;;;;1.40;0.60;;;;;;;6.45;100.00;98739.56;685633;28;1328;-62
2023/01/09 01:26:25;;;;;;;0.80;0.60;;;;;;;6.46;100.00;98738.66;687890;28;1362;-61
2023/01/09 01:26:46;;;;;;;0.83;0.60;;;;;;;6.53;100.00;98736.81;686559;28;1568;-62
2023/01/09 01:27:06;;;;;;;0.82;0.60;;;;;;;6.47;100.00;98745.56;685915;28;1808;-63
2023/01/09 01:27:27;;;;;;;0.93;0.60;;;;;;;6.42;100.00;98737.00;681519;28;4577;-61
2023/01/09 01:27:48;;;;;;;1.42;0.60;;;;;;;6.48;100.00;98731.72;682506;28;1172;-65
2023/01/09 01:28:09;;;;;;;1.13;0.68;;;;;;;6.39;100.00;98734.47;682995;28;1290;-62
2023/01/09 01:28:29;;;;;;;1.73;0.70;;;;;;;6.39;100.00;98736.22;681723;28;1524;-62
2023/01/09 01:28:50;;;;;;;1.40;0.70;;;;;;;6.39;100.00;98734.47;682687;28;1070;-62
2023/01/09 01:29:10;;;;;;;1.45;0.70;;;;;;;6.45;100.00;98739.56;685980;28;1172;-63
2023/01/09 01:29:30;;;;;;;2.63;0.80;;;;;;;6.53;100.00;98735.97;685747;28;1275;-63
2023/01/09 01:29:51;;;;;;;2.03;0.70;;;;;;;6.54;100.00;98740.28;682485;28;1204;-62
2023/01/09 01:30:13;;;;;;;2.07;0.90;;;;;;;6.58;100.00;98736.75;685017;28;1291;-65
2023/01/09 01:30:41;;;;;;;1.83;0.80;;;;;;;6.48;100.00;98734.31;685028;28;4297;-62
2023/01/09 01:31:02;;;;;;;1.08;0.60;;;;;;;6.41;100.00;98735.31;684164;28;1042;-63
2023/01/09 01:31:23;;;;;;;1.00;0.60;;;;;;;6.34;100.00;98728.53;687274;28;1417;-62
2023/01/09 01:31:43;;;;;;;1.07;0.67;;;;;;;6.27;100.00;98734.69;687001;28;3403;-62
2023/01/09 01:32:03;;;;;;;1.25;0.70;;;;;;;6.26;100.00;98739.03;688831;28;1298;-63
2023/01/09 01:32:24;;;;;;;1.17;0.70;;;;;;;6.30;100.00;98738.09;687487;28;1028;-63
2023/01/09 01:32:44;;;;;;;1.45;0.60;;;;;;;6.27;100.00;98729.50;689144;28;1450;-63
2023/01/09 01:33:05;;;;;;;1.07;0.50;;;;;;;6.26;100.00;98746.00;687967;28;1476;-63
2023/01/09 01:33:26;;;;;;;1.20;0.60;;;;;;;6.37;100.00;98738.84;684461;28;4436;-62
2023/01/09 01:33:46;;;;;;;1.92;0.70;;;;;;;6.43;100.00;98730.09;687913;28;1080;-62
2023/01/09 01:34:07;;;;;;;2.27;0.70;;;;;;;6.38;100.00;98735.34;687471;28;1290;-64
2023/01/09 01:34:28;;;;;;;2.60;0.60;;;;;;;6.34;100.00;98733.72;687501;28;1630;-63
2023/01/09 01:34:48;;;;;;;3.28;1.10;;;;;;;6.38;100.00;98739.69;687103;28;1268;-62
2023/01/09 01:35:10;;;;;;;1.87;0.80;;;;;;;6.40;100.00;98737.94;685135;28;1401;-63
2023/01/09 01:35:30;;;;;;;1.33;0.60;;;;;;;6.37;100.00;98733.66;685088;28;5260;-62
2023/01/09 01:36:07;;;;;;;1.13;0.60;;;;;;;6.33;100.00;98737.19;685571;28;1324;-63
2023/01/09 01:36:27;;;;;;;2.38;1.00;;;;;;;6.30;100.00;98737.25;683765;28;4751;-63
2023/01/09 01:36:48;;;;;;;2.17;1.03;;;;;;;6.26;100.00;98730.41;685477;28;1261;-63
2023/01/09 01:37:08;;;;;;;1.27;0.70;;;;;;;6.34;100.00;98732.84;687529;28;1328;-62
2023/01/09 01:37:29;;;;;;;2.08;0.77;;;;;;;6.32;100.00;98729.44;688357;28;1210;-62
2023/01/09 01:37:49;;;;;;;1.50;0.70;;;;;;;6.23;100.00;98727.84;688364;28;1455;-62
2023/01/09 01:38:10;;;;;;;1.50;0.63;;;;;;;6.19;100.00;98731.38;687370;28;1746;-62
2023/01/09 01:38:31;;;;;;;1.30;0.60;;;;;;;6.18;100.00;98729.69;684997;28;1313;-63
2023/01/09 01:38:51;;;;;;;2.05;0.60;;;;;;;6.19;100.00;98733.97;687739;28;1242;-62
2023/01/09 01:39:11;;;;;;;1.53;0.70;;;;;;;6.18;100.00;98738.31;686839;28;1236;-62
2023/01/09 01:39:32;;;;;;;2.00;0.70;;;;;;;6.18;100.00;98727.09;687471;28;4401;-63
2023/01/09 01:39:52;;;;;;;1.52;0.70;;;;;;;6.18;100.00;98733.13;688533;28;1514;-63
2023/01/09 01:40:13;;;;;;;1.05;0.60;;;;;;;6.16;100.00;98732.28;687123;28;1469;-63
2023/01/09 01:40:33;;;;;;;1.20;0.60;;;;;;;6.11;100.00;98732.38;687506;28;1080;-63
2023/01/09 01:40:54;;;;;;;1.20;0.60;;;;;;;6.19;100.00;98736.56;688687;28;1488;-62
2023/01/09 01:41:28;;;;;;;1.63;0.60;;;;;;;6.21;100.00;98727.03;685197;28;1184;-63
2023/01/09 01:41:48;;;;;;;1.20;0.68;;;;;;;6.16;100.00;98736.63;687264;28;1362;-63
2023/01/09 01:42:11;;;;;;;1.23;0.70;;;;;;;6.08;100.00;98734.19;687640;28;1226;-62
2023/01/09 01:42:32;;;;;;;1.20;0.60;;;;;;;6.18;100.00;98740.06;686109;28;4384;-62
2023/01/09 01:42:54;;;;;;;1.38;0.70;;;;;;;6.18;100.00;98742.66;687604;28;1180;-62
2023/01/09 01:43:14;;;;;;;1.70;0.70;;;;;;;6.25;100.00;98731.28;690227;28;1305;-62
2023/01/09 01:43:50;;;;;;;0.63;0.50;;;;;;;6.32;100.00;98730.28;691122;28;1492;-62
2023/01/09 01:44:48;;;;;;;1.52;0.70;;;;;;;6.32;100.00;98737.22;685816;28;1218;-62
2023/01/09 01:45:13;;;;;;;1.20;0.60;;;;;;;6.24;100.00;98729.56;685311;28;1294;-62
2023/01/09 01:45:34;;;;;;;1.92;0.70;;;;;;;6.20;100.00;98733.94;684469;28;4628;-63
2023/01/09 01:45:55;;;;;;;1.75;0.70;;;;;;;6.11;100.00;98736.72;685167;28;1510;-63
2023/01/09 01:46:17;;;;;;;1.20;0.70;;;;;;;6.08;100.00;98744.56;682861;28;1299;-62
2023/01/09 01:46:37;;;;;;;1.30;0.60;;;;;;;6.20;100.00;98740.88;684434;28;1366;-62
2023/01/09 01:46:57;;;;;;;1.47;0.60;;;;;;;6.19;100.00;98736.56;682472;28;1365;-63
2023/01/09 01:47:20;;;;;;;1.67;0.60;;;;;;;6.23;100.00;98738.22;685459;28;1331;-62
2023/01/09 01:47:47;;;;;;;1.52;0.60;;;;;;;6.22;100.00;98742.56;685389;28;1375;-62
2023/01/09 01:48:11;;;;;;;1.70;0.70;;;;;;;6.21;100.00;98734.81;685868;28;1176;-62
2023/01/09 01:48:32;;;;;;;2.30;0.82;;;;;;;6.19;100.00;98739.16;684454;28;4359;-63
2023/01/09 01:48:58;;;;;;;2.10;0.90;;;;;;;6.10;100.00;98743.63;685270;28;1459;-62